sensor_id;sensor_type;location;lat;lon;timestamp;P1;durP1;ratioP1;P2;durP2;ratioP2
5414;SDS011;2730;51.512;7.504;2024-03-25T00:01:26;6.38;;;2.53;;
5414;SDS011;2730;51.512;7.504;2024-03-25T00:03:52;11.32;;;3.50;;
5414;SDS011;2730;51.512;7.504;2024-03-25T00:06:19;34.60;;;3.90;;
5414;SDS011;2730;51.512;7.504;2024-03-25T00:08:44;8.90;;;2.60;;
5414;SDS011;2730;51.512;7.504;2024-03-25T00:11:12;6.57;;;2.30;;
5414;SDS011;2730;51.512;7.504;2024-03-25T00:13:38;8.87;;;3.40;;
5414;SDS011;2730;51.512;7.504;2024-03-25T00:16:05;11.70;;;2.95;;
5414;SDS011;2730;51.512;7.504;2024-03-25T00:18:33;4.88;;;2.22;;
5414;SDS011;2730;51.512;7.504;2024-03-25T00:20:59;15.93;;;3.00;;
5414;SDS011;2730;51.512;7.504;2024-03-25T00:23:25;23.17;;;3.33;;
5414;SDS011;2730;51.512;7.504;2024-03-25T00:25:52;13.15;;;2.60;;
5414;SDS011;2730;51.512;7.504;2024-03-25T00:28:18;7.70;;;2.63;;
5414;SDS011;2730;51.512;7.504;2024-03-25T00:30:44;7.93;;;2.85;;
5414;SDS011;2730;51.512;7.504;2024-03-25T00:33:10;25.93;;;3.20;;
5414;SDS011;2730;51.512;7.504;2024-03-25T00:35:39;21.80;;;3.85;;
5414;SDS011;2730;51.512;7.504;2024-03-25T00:38:04;11.95;;;3.17;;
5414;SDS011;2730;51.512;7.504;2024-03-25T00:40:32;9.45;;;4.18;;
5414;SDS011;2730;51.512;7.504;2024-03-25T00:42:59;25.65;;;3.42;;
5414;SDS011;2730;51.512;7.504;2024-03-25T00:45:26;14.77;;;4.22;;
5414;SDS011;2730;51.512;7.504;2024-03-25T00:47:55;14.13;;;2.95;;
5414;SDS011;2730;51.512;7.504;2024-03-25T00:50:22;16.23;;;4.03;;
5414;SDS011;2730;51.512;7.504;2024-03-25T00:52:49;24.77;;;4.03;;
5414;SDS011;2730;51.512;7.504;2024-03-25T00:55:16;14.48;;;4.35;;
5414;SDS011;2730;51.512;7.504;2024-03-25T00:57:42;14.53;;;4.57;;
5414;SDS011;2730;51.512;7.504;2024-03-25T01:00:09;21.25;;;3.67;;
5414;SDS011;2730;51.512;7.504;2024-03-25T01:02:35;9.48;;;4.53;;
5414;SDS011;2730;51.512;7.504;2024-03-25T01:05:02;11.00;;;3.08;;
5414;SDS011;2730;51.512;7.504;2024-03-25T01:07:30;18.17;;;4.20;;
5414;SDS011;2730;51.512;7.504;2024-03-25T01:09:58;12.80;;;2.90;;
5414;SDS011;2730;51.512;7.504;2024-03-25T01:12:24;15.43;;;3.63;;
5414;SDS011;2730;51.512;7.504;2024-03-25T01:14:50;11.40;;;4.40;;
5414;SDS011;2730;51.512;7.504;2024-03-25T01:17:16;21.40;;;4.77;;
5414;SDS011;2730;51.512;7.504;2024-03-25T01:19:43;15.48;;;4.47;;
5414;SDS011;2730;51.512;7.504;2024-03-25T01:22:09;19.50;;;6.33;;
5414;SDS011;2730;51.512;7.504;2024-03-25T01:24:36;12.15;;;3.55;;
5414;SDS011;2730;51.512;7.504;2024-03-25T01:27:03;14.50;;;4.73;;
5414;SDS011;2730;51.512;7.504;2024-03-25T01:29:30;21.80;;;4.05;;
5414;SDS011;2730;51.512;7.504;2024-03-25T01:31:56;19.23;;;3.70;;
5414;SDS011;2730;51.512;7.504;2024-03-25T01:34:24;13.43;;;4.22;;
5414;SDS011;2730;51.512;7.504;2024-03-25T01:36:50;19.92;;;5.82;;
5414;SDS011;2730;51.512;7.504;2024-03-25T01:39:17;14.15;;;4.78;;
5414;SDS011;2730;51.512;7.504;2024-03-25T01:41:43;15.45;;;4.85;;
5414;SDS011;2730;51.512;7.504;2024-03-25T01:44:11;17.98;;;4.72;;
5414;SDS011;2730;51.512;7.504;2024-03-25T01:46:37;13.68;;;5.28;;
5414;SDS011;2730;51.512;7.504;2024-03-25T01:49:04;19.30;;;5.63;;
5414;SDS011;2730;51.512;7.504;2024-03-25T01:51:31;26.73;;;6.38;;
5414;SDS011;2730;51.512;7.504;2024-03-25T01:53:59;16.73;;;5.93;;
5414;SDS011;2730;51.512;7.504;2024-03-25T01:56:25;25.25;;;7.57;;
5414;SDS011;2730;51.512;7.504;2024-03-25T01:58:55;16.63;;;5.85;;
5414;SDS011;2730;51.512;7.504;2024-03-25T02:01:22;20.10;;;6.83;;
5414;SDS011;2730;51.512;7.504;2024-03-25T02:03:50;24.80;;;6.88;;
5414;SDS011;2730;51.512;7.504;2024-03-25T02:06:16;20.60;;;7.43;;
5414;SDS011;2730;51.512;7.504;2024-03-25T02:08:43;27.08;;;7.55;;
5414;SDS011;2730;51.512;7.504;2024-03-25T02:11:10;29.70;;;6.78;;
5414;SDS011;2730;51.512;7.504;2024-03-25T02:13:37;12.23;;;5.60;;
5414;SDS011;2730;51.512;7.504;2024-03-25T02:16:04;25.35;;;5.05;;
5414;SDS011;2730;51.512;7.504;2024-03-25T02:18:33;18.63;;;5.32;;
5414;SDS011;2730;51.512;7.504;2024-03-25T02:20:59;16.13;;;6.80;;
5414;SDS011;2730;51.512;7.504;2024-03-25T02:23:26;15.35;;;6.50;;
5414;SDS011;2730;51.512;7.504;2024-03-25T02:25:53;31.73;;;7.35;;
5414;SDS011;2730;51.512;7.504;2024-03-25T02:28:20;22.83;;;6.45;;
5414;SDS011;2730;51.512;7.504;2024-03-25T02:30:46;19.67;;;7.43;;
5414;SDS011;2730;51.512;7.504;2024-03-25T02:33:13;20.55;;;5.75;;
5414;SDS011;2730;51.512;7.504;2024-03-25T02:35:40;30.43;;;7.40;;
5414;SDS011;2730;51.512;7.504;2024-03-25T02:38:08;18.42;;;7.70;;
5414;SDS011;2730;51.512;7.504;2024-03-25T02:40:35;22.17;;;7.93;;
5414;SDS011;2730;51.512;7.504;2024-03-25T02:43:04;39.25;;;7.75;;
5414;SDS011;2730;51.512;7.504;2024-03-25T02:45:32;39.35;;;8.65;;
5414;SDS011;2730;51.512;7.504;2024-03-25T02:47:59;31.05;;;8.65;;
5414;SDS011;2730;51.512;7.504;2024-03-25T02:50:24;27.60;;;8.23;;
5414;SDS011;2730;51.512;7.504;2024-03-25T02:52:52;36.85;;;8.30;;
5414;SDS011;2730;51.512;7.504;2024-03-25T02:55:18;30.50;;;8.80;;
5414;SDS011;2730;51.512;7.504;2024-03-25T02:57:44;28.20;;;8.13;;
5414;SDS011;2730;51.512;7.504;2024-03-25T03:00:12;30.97;;;7.33;;
5414;SDS011;2730;51.512;7.504;2024-03-25T03:02:39;26.13;;;7.65;;
5414;SDS011;2730;51.512;7.504;2024-03-25T03:05:05;34.83;;;9.30;;
5414;SDS011;2730;51.512;7.504;2024-03-25T03:07:32;23.50;;;6.75;;
5414;SDS011;2730;51.512;7.504;2024-03-25T03:09:58;18.40;;;6.03;;
5414;SDS011;2730;51.512;7.504;2024-03-25T03:12:25;28.40;;;7.28;;
5414;SDS011;2730;51.512;7.504;2024-03-25T03:14:51;23.48;;;6.13;;
5414;SDS011;2730;51.512;7.504;2024-03-25T03:17:19;35.37;;;8.90;;
5414;SDS011;2730;51.512;7.504;2024-03-25T03:19:45;21.77;;;5.88;;
5414;SDS011;2730;51.512;7.504;2024-03-25T03:22:11;33.43;;;7.53;;
5414;SDS011;2730;51.512;7.504;2024-03-25T03:24:38;15.63;;;6.10;;
5414;SDS011;2730;51.512;7.504;2024-03-25T03:27:04;18.20;;;5.90;;
5414;SDS011;2730;51.512;7.504;2024-03-25T03:29:30;32.78;;;6.35;;
5414;SDS011;2730;51.512;7.504;2024-03-25T03:31:56;22.20;;;5.40;;
5414;SDS011;2730;51.512;7.504;2024-03-25T03:34:24;17.08;;;4.95;;
5414;SDS011;2730;51.512;7.504;2024-03-25T03:36:51;29.10;;;6.20;;
5414;SDS011;2730;51.512;7.504;2024-03-25T03:39:17;23.65;;;5.80;;
5414;SDS011;2730;51.512;7.504;2024-03-25T03:41:44;18.35;;;4.70;;
5414;SDS011;2730;51.512;7.504;2024-03-25T03:44:10;13.90;;;4.40;;
5414;SDS011;2730;51.512;7.504;2024-03-25T03:46:38;18.08;;;5.28;;
5414;SDS011;2730;51.512;7.504;2024-03-25T03:49:04;16.58;;;4.20;;
5414;SDS011;2730;51.512;7.504;2024-03-25T03:51:31;11.93;;;4.70;;
5414;SDS011;2730;51.512;7.504;2024-03-25T03:53:58;11.18;;;5.65;;
5414;SDS011;2730;51.512;7.504;2024-03-25T03:56:24;16.90;;;4.17;;
5414;SDS011;2730;51.512;7.504;2024-03-25T03:58:51;23.67;;;4.80;;
5414;SDS011;2730;51.512;7.504;2024-03-25T04:01:17;29.27;;;5.17;;
5414;SDS011;2730;51.512;7.504;2024-03-25T04:03:44;18.08;;;4.78;;
5414;SDS011;2730;51.512;7.504;2024-03-25T04:06:10;18.83;;;5.00;;
5414;SDS011;2730;51.512;7.504;2024-03-25T04:08:40;16.27;;;6.35;;
5414;SDS011;2730;51.512;7.504;2024-03-25T04:11:06;10.57;;;5.03;;
5414;SDS011;2730;51.512;7.504;2024-03-25T04:13:33;22.40;;;5.72;;
5414;SDS011;2730;51.512;7.504;2024-03-25T04:16:02;20.05;;;5.70;;
5414;SDS011;2730;51.512;7.504;2024-03-25T04:18:31;20.00;;;5.30;;
5414;SDS011;2730;51.512;7.504;2024-03-25T04:20:58;23.30;;;5.82;;
5414;SDS011;2730;51.512;7.504;2024-03-25T04:23:25;17.88;;;5.30;;
5414;SDS011;2730;51.512;7.504;2024-03-25T04:25:52;21.92;;;6.47;;
5414;SDS011;2730;51.512;7.504;2024-03-25T04:28:19;19.70;;;6.05;;
5414;SDS011;2730;51.512;7.504;2024-03-25T04:30:50;11.87;;;5.93;;
5414;SDS011;2730;51.512;7.504;2024-03-25T04:33:17;11.18;;;5.45;;
5414;SDS011;2730;51.512;7.504;2024-03-25T04:35:43;10.60;;;5.13;;
5414;SDS011;2730;51.512;7.504;2024-03-25T04:38:11;21.13;;;5.65;;
5414;SDS011;2730;51.512;7.504;2024-03-25T04:40:36;29.43;;;5.63;;
5414;SDS011;2730;51.512;7.504;2024-03-25T04:43:04;22.10;;;6.80;;
5414;SDS011;2730;51.512;7.504;2024-03-25T04:45:30;23.58;;;5.38;;
5414;SDS011;2730;51.512;7.504;2024-03-25T04:47:56;12.00;;;4.30;;
5414;SDS011;2730;51.512;7.504;2024-03-25T04:50:21;23.93;;;5.90;;
5414;SDS011;2730;51.512;7.504;2024-03-25T04:52:47;20.17;;;4.87;;
5414;SDS011;2730;51.512;7.504;2024-03-25T04:55:13;21.43;;;5.87;;
5414;SDS011;2730;51.512;7.504;2024-03-25T04:57:39;36.78;;;5.93;;
5414;SDS011;2730;51.512;7.504;2024-03-25T05:00:07;15.53;;;5.97;;
5414;SDS011;2730;51.512;7.504;2024-03-25T05:02:35;35.22;;;5.68;;
5414;SDS011;2730;51.512;7.504;2024-03-25T05:05:01;22.00;;;7.38;;
5414;SDS011;2730;51.512;7.504;2024-03-25T05:07:28;22.92;;;6.03;;
5414;SDS011;2730;51.512;7.504;2024-03-25T05:09:53;23.53;;;5.40;;
5414;SDS011;2730;51.512;7.504;2024-03-25T05:12:19;26.07;;;6.27;;
5414;SDS011;2730;51.512;7.504;2024-03-25T05:14:45;16.33;;;5.90;;
5414;SDS011;2730;51.512;7.504;2024-03-25T05:17:12;24.40;;;6.57;;
5414;SDS011;2730;51.512;7.504;2024-03-25T05:19:38;23.40;;;5.88;;
5414;SDS011;2730;51.512;7.504;2024-03-25T05:22:04;12.67;;;6.87;;
5414;SDS011;2730;51.512;7.504;2024-03-25T05:24:30;11.37;;;4.60;;
5414;SDS011;2730;51.512;7.504;2024-03-25T05:26:56;22.23;;;5.07;;
5414;SDS011;2730;51.512;7.504;2024-03-25T05:29:21;18.43;;;6.57;;
5414;SDS011;2730;51.512;7.504;2024-03-25T05:31:55;23.73;;;6.57;;
5414;SDS011;2730;51.512;7.504;2024-03-25T05:34:23;25.00;;;5.78;;
5414;SDS011;2730;51.512;7.504;2024-03-25T05:36:49;14.82;;;5.53;;
5414;SDS011;2730;51.512;7.504;2024-03-25T05:39:15;9.47;;;5.00;;
5414;SDS011;2730;51.512;7.504;2024-03-25T05:41:41;30.27;;;5.97;;
5414;SDS011;2730;51.512;7.504;2024-03-25T05:44:07;29.73;;;6.73;;
5414;SDS011;2730;51.512;7.504;2024-03-25T05:46:33;23.70;;;5.27;;
5414;SDS011;2730;51.512;7.504;2024-03-25T05:49:00;27.23;;;6.27;;
5414;SDS011;2730;51.512;7.504;2024-03-25T05:51:28;15.60;;;6.68;;
5414;SDS011;2730;51.512;7.504;2024-03-25T05:53:54;24.13;;;5.72;;
5414;SDS011;2730;51.512;7.504;2024-03-25T05:56:20;17.13;;;5.23;;
5414;SDS011;2730;51.512;7.504;2024-03-25T05:58:46;21.13;;;5.30;;
5414;SDS011;2730;51.512;7.504;2024-03-25T06:01:12;22.53;;;5.10;;
5414;SDS011;2730;51.512;7.504;2024-03-25T06:03:38;24.05;;;5.68;;
5414;SDS011;2730;51.512;7.504;2024-03-25T06:06:04;23.43;;;6.03;;
5414;SDS011;2730;51.512;7.504;2024-03-25T06:08:31;14.77;;;4.57;;
5414;SDS011;2730;51.512;7.504;2024-03-25T06:11:00;19.63;;;5.15;;
5414;SDS011;2730;51.512;7.504;2024-03-25T06:13:26;10.10;;;5.10;;
5414;SDS011;2730;51.512;7.504;2024-03-25T06:15:52;25.70;;;7.70;;
5414;SDS011;2730;51.512;7.504;2024-03-25T06:18:18;18.10;;;6.17;;
5414;SDS011;2730;51.512;7.504;2024-03-25T06:20:44;23.87;;;6.23;;
5414;SDS011;2730;51.512;7.504;2024-03-25T06:23:09;29.90;;;6.03;;
5414;SDS011;2730;51.512;7.504;2024-03-25T06:25:37;15.43;;;5.37;;
5414;SDS011;2730;51.512;7.504;2024-03-25T06:28:03;16.65;;;5.78;;
5414;SDS011;2730;51.512;7.504;2024-03-25T06:30:29;22.48;;;5.97;;
5414;SDS011;2730;51.512;7.504;2024-03-25T06:33:13;14.27;;;5.70;;
5414;SDS011;2730;51.512;7.504;2024-03-25T06:35:57;17.45;;;5.25;;
5414;SDS011;2730;51.512;7.504;2024-03-25T06:38:23;22.70;;;5.93;;
5414;SDS011;2730;51.512;7.504;2024-03-25T06:40:50;30.87;;;6.90;;
5414;SDS011;2730;51.512;7.504;2024-03-25T06:43:16;17.13;;;5.22;;
5414;SDS011;2730;51.512;7.504;2024-03-25T06:45:42;19.53;;;4.70;;
5414;SDS011;2730;51.512;7.504;2024-03-25T06:48:08;15.77;;;6.47;;
5414;SDS011;2730;51.512;7.504;2024-03-25T06:50:34;14.33;;;5.53;;
5414;SDS011;2730;51.512;7.504;2024-03-25T06:52:59;14.57;;;5.33;;
5414;SDS011;2730;51.512;7.504;2024-03-25T06:55:25;14.80;;;6.33;;
5414;SDS011;2730;51.512;7.504;2024-03-25T06:57:52;13.50;;;4.37;;
5414;SDS011;2730;51.512;7.504;2024-03-25T07:00:19;16.58;;;5.20;;
5414;SDS011;2730;51.512;7.504;2024-03-25T07:02:45;11.40;;;4.97;;
5414;SDS011;2730;51.512;7.504;2024-03-25T07:05:11;15.03;;;4.90;;
5414;SDS011;2730;51.512;7.504;2024-03-25T07:07:36;14.00;;;4.63;;
5414;SDS011;2730;51.512;7.504;2024-03-25T07:10:02;15.83;;;4.63;;
5414;SDS011;2730;51.512;7.504;2024-03-25T07:12:28;20.33;;;4.60;;
5414;SDS011;2730;51.512;7.504;2024-03-25T07:14:56;12.90;;;5.30;;
5414;SDS011;2730;51.512;7.504;2024-03-25T07:17:21;15.88;;;3.90;;
5414;SDS011;2730;51.512;7.504;2024-03-25T07:19:47;7.80;;;3.37;;
5414;SDS011;2730;51.512;7.504;2024-03-25T07:22:13;14.20;;;5.07;;
5414;SDS011;2730;51.512;7.504;2024-03-25T07:24:39;12.30;;;4.17;;
5414;SDS011;2730;51.512;7.504;2024-03-25T07:27:05;10.77;;;4.10;;
5414;SDS011;2730;51.512;7.504;2024-03-25T07:29:31;10.67;;;4.00;;
5414;SDS011;2730;51.512;7.504;2024-03-25T07:31:58;12.73;;;3.87;;
5414;SDS011;2730;51.512;7.504;2024-03-25T07:34:24;11.93;;;3.97;;
5414;SDS011;2730;51.512;7.504;2024-03-25T07:36:50;17.55;;;3.97;;
5414;SDS011;2730;51.512;7.504;2024-03-25T07:39:16;18.10;;;5.77;;
5414;SDS011;2730;51.512;7.504;2024-03-25T07:41:41;9.00;;;3.47;;
5414;SDS011;2730;51.512;7.504;2024-03-25T07:44:07;16.00;;;2.93;;
5414;SDS011;2730;51.512;7.504;2024-03-25T07:46:33;10.87;;;5.20;;
5414;SDS011;2730;51.512;7.504;2024-03-25T07:49:00;19.73;;;4.80;;
5414;SDS011;2730;51.512;7.504;2024-03-25T07:51:26;9.70;;;3.40;;
5414;SDS011;2730;51.512;7.504;2024-03-25T07:53:52;16.93;;;3.37;;
5414;SDS011;2730;51.512;7.504;2024-03-25T07:56:17;20.40;;;3.90;;
5414;SDS011;2730;51.512;7.504;2024-03-25T07:58:43;12.27;;;3.33;;
5414;SDS011;2730;51.512;7.504;2024-03-25T08:01:09;9.40;;;3.50;;
5414;SDS011;2730;51.512;7.504;2024-03-25T08:03:35;10.40;;;4.00;;
5414;SDS011;2730;51.512;7.504;2024-03-25T08:06:02;11.40;;;3.13;;
5414;SDS011;2730;51.512;7.504;2024-03-25T08:08:29;11.95;;;4.40;;
5414;SDS011;2730;51.512;7.504;2024-03-25T08:10:54;13.10;;;3.53;;
5414;SDS011;2730;51.512;7.504;2024-03-25T08:13:21;12.60;;;3.30;;
5414;SDS011;2730;51.512;7.504;2024-03-25T08:15:47;9.70;;;3.07;;
5414;SDS011;2730;51.512;7.504;2024-03-25T08:18:13;11.70;;;2.90;;
5414;SDS011;2730;51.512;7.504;2024-03-25T08:20:38;12.40;;;3.47;;
5414;SDS011;2730;51.512;7.504;2024-03-25T08:23:06;9.60;;;3.50;;
5414;SDS011;2730;51.512;7.504;2024-03-25T08:25:32;5.30;;;3.05;;
5414;SDS011;2730;51.512;7.504;2024-03-25T08:27:58;7.77;;;2.90;;
5414;SDS011;2730;51.512;7.504;2024-03-25T08:30:24;7.47;;;2.83;;
5414;SDS011;2730;51.512;7.504;2024-03-25T08:32:50;14.55;;;3.00;;
5414;SDS011;2730;51.512;7.504;2024-03-25T08:35:16;7.13;;;2.45;;
5414;SDS011;2730;51.512;7.504;2024-03-25T08:37:42;14.70;;;2.83;;
5414;SDS011;2730;51.512;7.504;2024-03-25T08:40:09;6.83;;;1.63;;
5414;SDS011;2730;51.512;7.504;2024-03-25T08:42:36;13.75;;;2.67;;
5414;SDS011;2730;51.512;7.504;2024-03-25T08:45:01;10.30;;;2.67;;
5414;SDS011;2730;51.512;7.504;2024-03-25T08:47:28;6.63;;;2.13;;
5414;SDS011;2730;51.512;7.504;2024-03-25T08:49:53;7.47;;;3.60;;
5414;SDS011;2730;51.512;7.504;2024-03-25T08:52:19;5.23;;;2.80;;
5414;SDS011;2730;51.512;7.504;2024-03-25T08:54:45;9.83;;;2.23;;
5414;SDS011;2730;51.512;7.504;2024-03-25T08:57:12;8.57;;;2.60;;
5414;SDS011;2730;51.512;7.504;2024-03-25T08:59:38;7.80;;;3.30;;
5414;SDS011;2730;51.512;7.504;2024-03-25T09:02:04;10.53;;;3.03;;
5414;SDS011;2730;51.512;7.504;2024-03-25T09:04:30;7.10;;;2.17;;
5414;SDS011;2730;51.512;7.504;2024-03-25T09:06:56;10.33;;;3.10;;
5414;SDS011;2730;51.512;7.504;2024-03-25T09:09:22;6.40;;;2.30;;
5414;SDS011;2730;51.512;7.504;2024-03-25T09:12:06;11.30;;;2.20;;
5414;SDS011;2730;51.512;7.504;2024-03-25T09:14:33;6.07;;;1.27;;
5414;SDS011;2730;51.512;7.504;2024-03-25T09:16:59;4.33;;;1.40;;
5414;SDS011;2730;51.512;7.504;2024-03-25T09:19:26;6.90;;;1.70;;
5414;SDS011;2730;51.512;7.504;2024-03-25T09:21:52;8.03;;;1.90;;
5414;SDS011;2730;51.512;7.504;2024-03-25T09:24:17;4.60;;;1.53;;
5414;SDS011;2730;51.512;7.504;2024-03-25T09:26:43;4.13;;;1.63;;
5414;SDS011;2730;51.512;7.504;2024-03-25T09:29:09;8.80;;;1.97;;
5414;SDS011;2730;51.512;7.504;2024-03-25T09:31:36;4.53;;;1.47;;
5414;SDS011;2730;51.512;7.504;2024-03-25T09:34:02;3.53;;;1.97;;
5414;SDS011;2730;51.512;7.504;2024-03-25T09:36:28;7.93;;;2.20;;
5414;SDS011;2730;51.512;7.504;2024-03-25T09:38:54;5.67;;;1.73;;
5414;SDS011;2730;51.512;7.504;2024-03-25T09:41:20;5.87;;;1.93;;
5414;SDS011;2730;51.512;7.504;2024-03-25T09:43:47;8.70;;;1.80;;
5414;SDS011;2730;51.512;7.504;2024-03-25T09:46:14;7.10;;;1.70;;
5414;SDS011;2730;51.512;7.504;2024-03-25T09:48:42;7.07;;;3.60;;
5414;SDS011;2730;51.512;7.504;2024-03-25T09:51:08;2.80;;;1.80;;
5414;SDS011;2730;51.512;7.504;2024-03-25T09:53:35;9.73;;;2.43;;
5414;SDS011;2730;51.512;7.504;2024-03-25T09:56:01;11.73;;;2.20;;
5414;SDS011;2730;51.512;7.504;2024-03-25T09:58:27;5.70;;;1.93;;
5414;SDS011;2730;51.512;7.504;2024-03-25T10:00:55;5.70;;;1.90;;
5414;SDS011;2730;51.512;7.504;2024-03-25T10:03:21;7.80;;;1.80;;
5414;SDS011;2730;51.512;7.504;2024-03-25T10:05:48;13.10;;;2.27;;
5414;SDS011;2730;51.512;7.504;2024-03-25T10:08:19;10.50;;;2.60;;
5414;SDS011;2730;51.512;7.504;2024-03-25T10:10:45;4.70;;;1.80;;
5414;SDS011;2730;51.512;7.504;2024-03-25T10:13:11;2.20;;;1.63;;
5414;SDS011;2730;51.512;7.504;2024-03-25T10:15:37;6.60;;;1.40;;
5414;SDS011;2730;51.512;7.504;2024-03-25T10:18:03;7.40;;;2.23;;
5414;SDS011;2730;51.512;7.504;2024-03-25T10:20:29;4.23;;;2.10;;
5414;SDS011;2730;51.512;7.504;2024-03-25T10:22:56;7.63;;;1.87;;
5414;SDS011;2730;51.512;7.504;2024-03-25T10:25:22;6.20;;;1.30;;
5414;SDS011;2730;51.512;7.504;2024-03-25T10:27:55;4.63;;;1.30;;
5414;SDS011;2730;51.512;7.504;2024-03-25T10:30:21;12.97;;;2.30;;
5414;SDS011;2730;51.512;7.504;2024-03-25T10:32:57;4.20;;;1.40;;
5414;SDS011;2730;51.512;7.504;2024-03-25T10:35:24;4.30;;;1.33;;
5414;SDS011;2730;51.512;7.504;2024-03-25T10:37:58;2.53;;;1.87;;
5414;SDS011;2730;51.512;7.504;2024-03-25T10:40:27;3.03;;;1.40;;
5414;SDS011;2730;51.512;7.504;2024-03-25T10:42:55;10.53;;;1.77;;
5414;SDS011;2730;51.512;7.504;2024-03-25T10:45:26;2.47;;;1.57;;
5414;SDS011;2730;51.512;7.504;2024-03-25T10:47:54;2.38;;;1.58;;
5414;SDS011;2730;51.512;7.504;2024-03-25T10:50:22;4.13;;;1.50;;
5414;SDS011;2730;51.512;7.504;2024-03-25T10:52:52;3.58;;;1.55;;
5414;SDS011;2730;51.512;7.504;2024-03-25T10:55:20;9.23;;;1.77;;
5414;SDS011;2730;51.512;7.504;2024-03-25T10:57:48;6.90;;;2.00;;
5414;SDS011;2730;51.512;7.504;2024-03-25T11:00:14;7.30;;;1.70;;
5414;SDS011;2730;51.512;7.504;2024-03-25T11:02:41;5.43;;;1.40;;
5414;SDS011;2730;51.512;7.504;2024-03-25T11:05:07;7.93;;;2.03;;
5414;SDS011;2730;51.512;7.504;2024-03-25T11:07:34;5.47;;;1.60;;
5414;SDS011;2730;51.512;7.504;2024-03-25T11:10:03;2.60;;;1.30;;
5414;SDS011;2730;51.512;7.504;2024-03-25T11:12:40;1.50;;;1.17;;
5414;SDS011;2730;51.512;7.504;2024-03-25T11:15:07;3.70;;;1.80;;
5414;SDS011;2730;51.512;7.504;2024-03-25T11:17:34;5.40;;;2.27;;
5414;SDS011;2730;51.512;7.504;2024-03-25T11:20:07;4.70;;;1.80;;
5414;SDS011;2730;51.512;7.504;2024-03-25T11:22:35;8.90;;;1.80;;
5414;SDS011;2730;51.512;7.504;2024-03-25T11:25:07;13.30;;;1.85;;
5414;SDS011;2730;51.512;7.504;2024-03-25T11:27:36;8.88;;;1.20;;
5414;SDS011;2730;51.512;7.504;2024-03-25T11:30:04;5.53;;;1.05;;
5414;SDS011;2730;51.512;7.504;2024-03-25T11:32:40;4.60;;;1.13;;
5414;SDS011;2730;51.512;7.504;2024-03-25T11:35:10;14.20;;;2.25;;
5414;SDS011;2730;51.512;7.504;2024-03-25T11:37:39;3.67;;;1.30;;
5414;SDS011;2730;51.512;7.504;2024-03-25T11:40:05;3.30;;;1.27;;
5414;SDS011;2730;51.512;7.504;2024-03-25T11:42:32;3.08;;;1.55;;
5414;SDS011;2730;51.512;7.504;2024-03-25T11:45:00;3.60;;;1.20;;
5414;SDS011;2730;51.512;7.504;2024-03-25T11:47:26;4.80;;;1.40;;
5414;SDS011;2730;51.512;7.504;2024-03-25T11:49:52;7.18;;;1.67;;
5414;SDS011;2730;51.512;7.504;2024-03-25T11:52:18;3.90;;;1.20;;
5414;SDS011;2730;51.512;7.504;2024-03-25T11:54:44;3.43;;;1.00;;
5414;SDS011;2730;51.512;7.504;2024-03-25T11:57:10;8.80;;;2.00;;
5414;SDS011;2730;51.512;7.504;2024-03-25T11:59:36;3.57;;;1.20;;
5414;SDS011;2730;51.512;7.504;2024-03-25T12:02:06;1.70;;;1.33;;
5414;SDS011;2730;51.512;7.504;2024-03-25T12:04:32;6.60;;;1.48;;
5414;SDS011;2730;51.512;7.504;2024-03-25T12:06:58;3.30;;;1.20;;
5414;SDS011;2730;51.512;7.504;2024-03-25T12:09:24;7.17;;;1.30;;
5414;SDS011;2730;51.512;7.504;2024-03-25T12:12:08;5.18;;;1.42;;
5414;SDS011;2730;51.512;7.504;2024-03-25T12:14:34;4.35;;;1.38;;
5414;SDS011;2730;51.512;7.504;2024-03-25T12:17:00;8.07;;;1.33;;
5414;SDS011;2730;51.512;7.504;2024-03-25T12:19:28;4.22;;;1.40;;
5414;SDS011;2730;51.512;7.504;2024-03-25T12:21:58;3.97;;;1.70;;
5414;SDS011;2730;51.512;7.504;2024-03-25T12:24:25;3.38;;;1.45;;
5414;SDS011;2730;51.512;7.504;2024-03-25T12:26:51;6.55;;;1.95;;
5414;SDS011;2730;51.512;7.504;2024-03-25T12:29:17;6.53;;;1.20;;
5414;SDS011;2730;51.512;7.504;2024-03-25T12:31:43;4.17;;;1.50;;
5414;SDS011;2730;51.512;7.504;2024-03-25T12:34:19;7.85;;;1.65;;
5414;SDS011;2730;51.512;7.504;2024-03-25T12:36:46;5.80;;;1.43;;
5414;SDS011;2730;51.512;7.504;2024-03-25T12:39:15;6.93;;;1.25;;
5414;SDS011;2730;51.512;7.504;2024-03-25T12:41:41;10.07;;;1.20;;
5414;SDS011;2730;51.512;7.504;2024-03-25T12:44:07;1.30;;;1.03;;
5414;SDS011;2730;51.512;7.504;2024-03-25T12:46:34;2.65;;;1.10;;
5414;SDS011;2730;51.512;7.504;2024-03-25T12:48:59;8.90;;;1.60;;
5414;SDS011;2730;51.512;7.504;2024-03-25T12:51:26;6.10;;;1.23;;
5414;SDS011;2730;51.512;7.504;2024-03-25T12:53:53;2.60;;;1.10;;
5414;SDS011;2730;51.512;7.504;2024-03-25T12:56:19;2.13;;;1.17;;
5414;SDS011;2730;51.512;7.504;2024-03-25T12:58:44;0.90;;;0.90;;
5414;SDS011;2730;51.512;7.504;2024-03-25T13:01:10;6.43;;;1.50;;
5414;SDS011;2730;51.512;7.504;2024-03-25T13:03:36;1.63;;;1.43;;
5414;SDS011;2730;51.512;7.504;2024-03-25T13:06:02;2.10;;;1.03;;
5414;SDS011;2730;51.512;7.504;2024-03-25T13:08:28;1.50;;;1.08;;
5414;SDS011;2730;51.512;7.504;2024-03-25T13:10:56;1.90;;;1.13;;
5414;SDS011;2730;51.512;7.504;2024-03-25T13:13:22;2.30;;;1.40;;
5414;SDS011;2730;51.512;7.504;2024-03-25T13:15:48;2.95;;;1.55;;
5414;SDS011;2730;51.512;7.504;2024-03-25T13:18:13;3.67;;;1.23;;
5414;SDS011;2730;51.512;7.504;2024-03-25T13:20:39;4.20;;;1.27;;
5414;SDS011;2730;51.512;7.504;2024-03-25T13:23:05;2.40;;;1.33;;
5414;SDS011;2730;51.512;7.504;2024-03-25T13:25:31;4.60;;;1.83;;
5414;SDS011;2730;51.512;7.504;2024-03-25T13:27:59;2.50;;;1.00;;
5414;SDS011;2730;51.512;7.504;2024-03-25T13:30:25;3.05;;;1.30;;
5414;SDS011;2730;51.512;7.504;2024-03-25T13:32:50;6.20;;;1.17;;
5414;SDS011;2730;51.512;7.504;2024-03-25T13:35:16;1.80;;;1.23;;
5414;SDS011;2730;51.512;7.504;2024-03-25T13:37:42;3.57;;;1.27;;
5414;SDS011;2730;51.512;7.504;2024-03-25T13:40:08;2.60;;;1.20;;
5414;SDS011;2730;51.512;7.504;2024-03-25T13:42:35;2.88;;;1.10;;
5414;SDS011;2730;51.512;7.504;2024-03-25T13:45:02;3.00;;;1.30;;
5414;SDS011;2730;51.512;7.504;2024-03-25T13:47:29;5.75;;;1.38;;
5414;SDS011;2730;51.512;7.504;2024-03-25T13:50:04;17.47;;;1.50;;
5414;SDS011;2730;51.512;7.504;2024-03-25T13:52:31;2.80;;;1.05;;
5414;SDS011;2730;51.512;7.504;2024-03-25T13:54:57;3.57;;;1.10;;
5414;SDS011;2730;51.512;7.504;2024-03-25T13:57:23;2.13;;;1.27;;
5414;SDS011;2730;51.512;7.504;2024-03-25T13:59:50;4.07;;;1.73;;
5414;SDS011;2730;51.512;7.504;2024-03-25T14:02:17;2.05;;;1.00;;
5414;SDS011;2730;51.512;7.504;2024-03-25T14:04:43;1.73;;;1.20;;
5414;SDS011;2730;51.512;7.504;2024-03-25T14:07:09;4.03;;;1.17;;
5414;SDS011;2730;51.512;7.504;2024-03-25T14:09:34;2.63;;;0.80;;
5414;SDS011;2730;51.512;7.504;2024-03-25T14:12:00;3.20;;;1.23;;
5414;SDS011;2730;51.512;7.504;2024-03-25T14:14:26;1.63;;;0.93;;
5414;SDS011;2730;51.512;7.504;2024-03-25T14:16:52;1.97;;;1.10;;
5414;SDS011;2730;51.512;7.504;2024-03-25T14:19:19;5.70;;;1.10;;
5414;SDS011;2730;51.512;7.504;2024-03-25T14:21:47;2.95;;;1.23;;
5414;SDS011;2730;51.512;7.504;2024-03-25T14:24:13;1.85;;;1.17;;
5414;SDS011;2730;51.512;7.504;2024-03-25T14:26:39;2.20;;;1.10;;
5414;SDS011;2730;51.512;7.504;2024-03-25T14:29:05;4.57;;;1.40;;
5414;SDS011;2730;51.512;7.504;2024-03-25T14:31:31;3.13;;;1.47;;
5414;SDS011;2730;51.512;7.504;2024-03-25T14:33:57;1.57;;;0.90;;
5414;SDS011;2730;51.512;7.504;2024-03-25T14:36:25;3.15;;;1.20;;
5414;SDS011;2730;51.512;7.504;2024-03-25T14:38:51;2.60;;;1.83;;
5414;SDS011;2730;51.512;7.504;2024-03-25T14:41:18;2.70;;;0.90;;
5414;SDS011;2730;51.512;7.504;2024-03-25T14:43:44;4.15;;;1.10;;
5414;SDS011;2730;51.512;7.504;2024-03-25T14:46:10;4.00;;;1.10;;
5414;SDS011;2730;51.512;7.504;2024-03-25T14:48:36;3.83;;;1.30;;
5414;SDS011;2730;51.512;7.504;2024-03-25T14:51:02;1.80;;;1.10;;
5414;SDS011;2730;51.512;7.504;2024-03-25T14:53:29;1.95;;;1.00;;
5414;SDS011;2730;51.512;7.504;2024-03-25T14:55:55;1.30;;;0.98;;
5414;SDS011;2730;51.512;7.504;2024-03-25T14:58:21;1.83;;;1.40;;
5414;SDS011;2730;51.512;7.504;2024-03-25T15:00:47;4.73;;;1.20;;
5414;SDS011;2730;51.512;7.504;2024-03-25T15:03:13;3.17;;;1.20;;
5414;SDS011;2730;51.512;7.504;2024-03-25T15:05:39;2.60;;;1.10;;